Řízení letového provozu České republiky
Letiste: LKKV Aktualizace: 18.12.2018 17:02:06  UTC
 METAR LKKV 18.12. 17:00 ...
METAR LKKV 181700Z 14003KT 110V180 9999 SCT012 M01/M01 Q1023 R29/////// RMK REG QNH 1021=
 TAF LKKV 18.12. 17:00 ...
TAF LKKV 181700Z 1818/2000 VRB02KT 5000 BR SCT009      TEMPO 1818/1910 2500 BR BKN007      PROB30 TEMPO 1818/1909 1200 BR BKN003      BECMG 1909/1912 14010KT=